sensor_id;sensor_type;location;lat;lon;timestamp;P1;durP1;ratioP1;P2;durP2;ratioP2
44766;SDS011;30487;48.716;9.272;2024-02-26T00:00:34;4.88;;;1.40;;
44766;SDS011;30487;48.716;9.272;2024-02-26T00:03:00;6.35;;;1.17;;
44766;SDS011;30487;48.716;9.272;2024-02-26T00:05:25;2.25;;;1.17;;
44766;SDS011;30487;48.716;9.272;2024-02-26T00:07:51;2.22;;;1.20;;
44766;SDS011;30487;48.716;9.272;2024-02-26T00:10:17;2.55;;;1.10;;
44766;SDS011;30487;48.716;9.272;2024-02-26T00:12:42;2.20;;;1.25;;
44766;SDS011;30487;48.716;9.272;2024-02-26T00:15:08;1.58;;;1.10;;
44766;SDS011;30487;48.716;9.272;2024-02-26T00:17:35;3.05;;;1.25;;
44766;SDS011;30487;48.716;9.272;2024-02-26T00:20:01;2.05;;;1.02;;
44766;SDS011;30487;48.716;9.272;2024-02-26T00:22:29;1.85;;;1.23;;
44766;SDS011;30487;48.716;9.272;2024-02-26T00:24:55;2.22;;;1.30;;
44766;SDS011;30487;48.716;9.272;2024-02-26T00:27:21;2.90;;;1.30;;
44766;SDS011;30487;48.716;9.272;2024-02-26T00:29:46;2.97;;;1.25;;
44766;SDS011;30487;48.716;9.272;2024-02-26T00:32:12;2.65;;;1.40;;
44766;SDS011;30487;48.716;9.272;2024-02-26T00:34:37;3.80;;;1.40;;
44766;SDS011;30487;48.716;9.272;2024-02-26T00:37:03;2.45;;;1.30;;
44766;SDS011;30487;48.716;9.272;2024-02-26T00:39:29;4.68;;;1.40;;
44766;SDS011;30487;48.716;9.272;2024-02-26T00:41:54;2.00;;;1.02;;
44766;SDS011;30487;48.716;9.272;2024-02-26T00:44:20;3.05;;;1.30;;
44766;SDS011;30487;48.716;9.272;2024-02-26T00:46:46;2.10;;;1.23;;
44766;SDS011;30487;48.716;9.272;2024-02-26T00:49:11;2.22;;;1.27;;
44766;SDS011;30487;48.716;9.272;2024-02-26T00:51:37;4.10;;;1.55;;
44766;SDS011;30487;48.716;9.272;2024-02-26T00:54:02;2.80;;;1.30;;
44766;SDS011;30487;48.716;9.272;2024-02-26T00:56:28;2.65;;;1.42;;
44766;SDS011;30487;48.716;9.272;2024-02-26T00:58:53;4.03;;;1.42;;
44766;SDS011;30487;48.716;9.272;2024-02-26T01:01:19;3.28;;;1.58;;
44766;SDS011;30487;48.716;9.272;2024-02-26T01:03:45;3.08;;;1.40;;
44766;SDS011;30487;48.716;9.272;2024-02-26T01:06:10;2.75;;;1.40;;
44766;SDS011;30487;48.716;9.272;2024-02-26T01:08:36;2.50;;;1.30;;
44766;SDS011;30487;48.716;9.272;2024-02-26T01:11:02;3.53;;;1.30;;
44766;SDS011;30487;48.716;9.272;2024-02-26T01:13:28;3.10;;;1.40;;
44766;SDS011;30487;48.716;9.272;2024-02-26T01:15:54;2.70;;;1.20;;
44766;SDS011;30487;48.716;9.272;2024-02-26T01:18:20;3.00;;;1.27;;
44766;SDS011;30487;48.716;9.272;2024-02-26T01:20:45;3.72;;;1.30;;
44766;SDS011;30487;48.716;9.272;2024-02-26T01:23:11;3.00;;;1.27;;
44766;SDS011;30487;48.716;9.272;2024-02-26T01:25:37;5.28;;;1.77;;
44766;SDS011;30487;48.716;9.272;2024-02-26T01:28:04;2.33;;;1.42;;
44766;SDS011;30487;48.716;9.272;2024-02-26T01:30:30;2.15;;;1.40;;
44766;SDS011;30487;48.716;9.272;2024-02-26T01:32:56;2.03;;;1.20;;
44766;SDS011;30487;48.716;9.272;2024-02-26T01:35:22;3.72;;;1.50;;
44766;SDS011;30487;48.716;9.272;2024-02-26T01:37:47;3.10;;;1.58;;
44766;SDS011;30487;48.716;9.272;2024-02-26T01:40:13;2.35;;;1.30;;
44766;SDS011;30487;48.716;9.272;2024-02-26T01:42:43;2.70;;;1.40;;
44766;SDS011;30487;48.716;9.272;2024-02-26T01:45:13;4.03;;;1.63;;
44766;SDS011;30487;48.716;9.272;2024-02-26T01:47:50;2.65;;;1.30;;
44766;SDS011;30487;48.716;9.272;2024-02-26T01:50:17;2.60;;;1.50;;
44766;SDS011;30487;48.716;9.272;2024-02-26T01:52:44;3.05;;;1.50;;
44766;SDS011;30487;48.716;9.272;2024-02-26T01:55:14;2.63;;;1.67;;
44766;SDS011;30487;48.716;9.272;2024-02-26T01:57:40;3.85;;;1.52;;
44766;SDS011;30487;48.716;9.272;2024-02-26T02:00:10;4.03;;;1.67;;
44766;SDS011;30487;48.716;9.272;2024-02-26T02:02:37;4.72;;;1.77;;
44766;SDS011;30487;48.716;9.272;2024-02-26T02:05:04;2.67;;;1.23;;
44766;SDS011;30487;48.716;9.272;2024-02-26T02:07:31;3.72;;;1.60;;
44766;SDS011;30487;48.716;9.272;2024-02-26T02:09:56;2.65;;;1.60;;
44766;SDS011;30487;48.716;9.272;2024-02-26T02:12:22;5.25;;;1.45;;
44766;SDS011;30487;48.716;9.272;2024-02-26T02:14:48;2.90;;;1.30;;
44766;SDS011;30487;48.716;9.272;2024-02-26T02:17:13;3.10;;;1.45;;
44766;SDS011;30487;48.716;9.272;2024-02-26T02:19:39;2.85;;;1.60;;
44766;SDS011;30487;48.716;9.272;2024-02-26T02:22:04;3.80;;;1.50;;
44766;SDS011;30487;48.716;9.272;2024-02-26T02:24:30;3.08;;;1.58;;
44766;SDS011;30487;48.716;9.272;2024-02-26T02:26:55;3.35;;;1.50;;
44766;SDS011;30487;48.716;9.272;2024-02-26T02:29:21;2.25;;;1.35;;
44766;SDS011;30487;48.716;9.272;2024-02-26T02:31:47;3.85;;;1.60;;
44766;SDS011;30487;48.716;9.272;2024-02-26T02:34:13;4.15;;;1.75;;
44766;SDS011;30487;48.716;9.272;2024-02-26T02:36:49;2.97;;;1.33;;
44766;SDS011;30487;48.716;9.272;2024-02-26T02:39:18;2.83;;;1.35;;
44766;SDS011;30487;48.716;9.272;2024-02-26T02:41:43;1.77;;;1.00;;
44766;SDS011;30487;48.716;9.272;2024-02-26T02:44:09;1.83;;;0.80;;
44766;SDS011;30487;48.716;9.272;2024-02-26T02:46:35;1.75;;;0.80;;
44766;SDS011;30487;48.716;9.272;2024-02-26T02:49:01;1.70;;;0.80;;
44766;SDS011;30487;48.716;9.272;2024-02-26T02:51:26;2.95;;;0.98;;
44766;SDS011;30487;48.716;9.272;2024-02-26T02:53:52;3.00;;;1.10;;
44766;SDS011;30487;48.716;9.272;2024-02-26T02:56:18;2.53;;;1.00;;
44766;SDS011;30487;48.716;9.272;2024-02-26T02:58:44;2.25;;;1.08;;
44766;SDS011;30487;48.716;9.272;2024-02-26T03:01:09;2.72;;;1.10;;
44766;SDS011;30487;48.716;9.272;2024-02-26T03:03:35;2.88;;;1.17;;
44766;SDS011;30487;48.716;9.272;2024-02-26T03:06:02;2.45;;;1.20;;
44766;SDS011;30487;48.716;9.272;2024-02-26T03:08:28;3.03;;;1.20;;
44766;SDS011;30487;48.716;9.272;2024-02-26T03:10:54;1.88;;;0.93;;
44766;SDS011;30487;48.716;9.272;2024-02-26T03:13:19;2.58;;;1.00;;
44766;SDS011;30487;48.716;9.272;2024-02-26T03:15:45;2.10;;;0.80;;
44766;SDS011;30487;48.716;9.272;2024-02-26T03:18:11;1.17;;;0.63;;
44766;SDS011;30487;48.716;9.272;2024-02-26T03:20:36;2.47;;;0.80;;
44766;SDS011;30487;48.716;9.272;2024-02-26T03:23:02;1.77;;;0.80;;
44766;SDS011;30487;48.716;9.272;2024-02-26T03:25:28;1.90;;;0.75;;
44766;SDS011;30487;48.716;9.272;2024-02-26T03:27:54;3.15;;;0.85;;
44766;SDS011;30487;48.716;9.272;2024-02-26T03:30:19;2.08;;;0.85;;
44766;SDS011;30487;48.716;9.272;2024-02-26T03:32:45;2.63;;;1.10;;
44766;SDS011;30487;48.716;9.272;2024-02-26T03:35:11;2.22;;;1.10;;
44766;SDS011;30487;48.716;9.272;2024-02-26T03:37:37;1.95;;;1.02;;
44766;SDS011;30487;48.716;9.272;2024-02-26T03:40:03;2.25;;;1.20;;
44766;SDS011;30487;48.716;9.272;2024-02-26T03:42:29;2.45;;;1.20;;
44766;SDS011;30487;48.716;9.272;2024-02-26T03:44:55;2.22;;;1.10;;
44766;SDS011;30487;48.716;9.272;2024-02-26T03:47:20;3.47;;;1.23;;
44766;SDS011;30487;48.716;9.272;2024-02-26T03:49:46;2.08;;;1.20;;
44766;SDS011;30487;48.716;9.272;2024-02-26T03:52:11;3.10;;;1.52;;
44766;SDS011;30487;48.716;9.272;2024-02-26T03:54:38;2.80;;;1.30;;
44766;SDS011;30487;48.716;9.272;2024-02-26T03:57:03;3.75;;;1.30;;
44766;SDS011;30487;48.716;9.272;2024-02-26T03:59:29;1.90;;;0.98;;
44766;SDS011;30487;48.716;9.272;2024-02-26T04:01:55;2.78;;;1.15;;
44766;SDS011;30487;48.716;9.272;2024-02-26T04:04:20;2.55;;;1.27;;
44766;SDS011;30487;48.716;9.272;2024-02-26T04:06:46;2.78;;;1.33;;
44766;SDS011;30487;48.716;9.272;2024-02-26T04:09:14;2.33;;;1.00;;
44766;SDS011;30487;48.716;9.272;2024-02-26T04:11:40;2.65;;;1.27;;
44766;SDS011;30487;48.716;9.272;2024-02-26T04:14:08;3.45;;;1.10;;
44766;SDS011;30487;48.716;9.272;2024-02-26T04:16:34;2.38;;;0.98;;
44766;SDS011;30487;48.716;9.272;2024-02-26T04:19:00;3.13;;;1.30;;
44766;SDS011;30487;48.716;9.272;2024-02-26T04:21:26;2.53;;;1.25;;
44766;SDS011;30487;48.716;9.272;2024-02-26T04:23:52;2.70;;;1.10;;
44766;SDS011;30487;48.716;9.272;2024-02-26T04:26:20;3.13;;;1.20;;
44766;SDS011;30487;48.716;9.272;2024-02-26T04:28:46;2.28;;;1.00;;
44766;SDS011;30487;48.716;9.272;2024-02-26T04:31:12;2.47;;;1.10;;
44766;SDS011;30487;48.716;9.272;2024-02-26T04:33:37;2.03;;;1.08;;
44766;SDS011;30487;48.716;9.272;2024-02-26T04:36:03;3.20;;;1.48;;
44766;SDS011;30487;48.716;9.272;2024-02-26T04:38:29;4.03;;;1.60;;
44766;SDS011;30487;48.716;9.272;2024-02-26T04:40:54;3.08;;;1.52;;
44766;SDS011;30487;48.716;9.272;2024-02-26T04:43:20;4.15;;;1.80;;
44766;SDS011;30487;48.716;9.272;2024-02-26T04:45:45;3.47;;;1.65;;
44766;SDS011;30487;48.716;9.272;2024-02-26T04:48:11;4.78;;;1.80;;
44766;SDS011;30487;48.716;9.272;2024-02-26T04:50:36;4.30;;;1.75;;
44766;SDS011;30487;48.716;9.272;2024-02-26T04:53:02;2.80;;;1.58;;
44766;SDS011;30487;48.716;9.272;2024-02-26T04:55:28;3.95;;;1.80;;
44766;SDS011;30487;48.716;9.272;2024-02-26T04:57:53;4.30;;;1.98;;
44766;SDS011;30487;48.716;9.272;2024-02-26T05:00:19;4.00;;;1.85;;
44766;SDS011;30487;48.716;9.272;2024-02-26T05:02:44;3.42;;;1.92;;
44766;SDS011;30487;48.716;9.272;2024-02-26T05:05:11;4.70;;;2.10;;
44766;SDS011;30487;48.716;9.272;2024-02-26T05:07:40;2.85;;;1.50;;
44766;SDS011;30487;48.716;9.272;2024-02-26T05:10:07;2.90;;;1.77;;
44766;SDS011;30487;48.716;9.272;2024-02-26T05:12:33;4.25;;;1.77;;
44766;SDS011;30487;48.716;9.272;2024-02-26T05:15:00;3.42;;;2.00;;
44766;SDS011;30487;48.716;9.272;2024-02-26T05:17:26;3.20;;;1.80;;
44766;SDS011;30487;48.716;9.272;2024-02-26T05:19:52;4.07;;;1.70;;
44766;SDS011;30487;48.716;9.272;2024-02-26T05:22:17;3.17;;;1.90;;
44766;SDS011;30487;48.716;9.272;2024-02-26T05:24:43;3.40;;;1.80;;
44766;SDS011;30487;48.716;9.272;2024-02-26T05:27:09;3.53;;;1.80;;
44766;SDS011;30487;48.716;9.272;2024-02-26T05:29:35;5.15;;;1.70;;
44766;SDS011;30487;48.716;9.272;2024-02-26T05:32:00;3.90;;;1.80;;
44766;SDS011;30487;48.716;9.272;2024-02-26T05:34:26;4.22;;;1.55;;
44766;SDS011;30487;48.716;9.272;2024-02-26T05:36:51;4.78;;;1.83;;
44766;SDS011;30487;48.716;9.272;2024-02-26T05:39:17;3.80;;;1.83;;
44766;SDS011;30487;48.716;9.272;2024-02-26T05:41:44;3.38;;;1.80;;
44766;SDS011;30487;48.716;9.272;2024-02-26T05:44:10;4.35;;;1.90;;
44766;SDS011;30487;48.716;9.272;2024-02-26T05:46:36;3.42;;;1.75;;
44766;SDS011;30487;48.716;9.272;2024-02-26T05:49:02;3.25;;;1.70;;
44766;SDS011;30487;48.716;9.272;2024-02-26T05:51:28;4.57;;;2.13;;
44766;SDS011;30487;48.716;9.272;2024-02-26T05:53:53;3.35;;;1.63;;
44766;SDS011;30487;48.716;9.272;2024-02-26T05:56:23;3.10;;;1.50;;
44766;SDS011;30487;48.716;9.272;2024-02-26T05:58:48;5.00;;;1.80;;
44766;SDS011;30487;48.716;9.272;2024-02-26T06:01:17;4.50;;;1.80;;
44766;SDS011;30487;48.716;9.272;2024-02-26T06:03:43;2.30;;;1.33;;
44766;SDS011;30487;48.716;9.272;2024-02-26T06:06:09;3.65;;;1.85;;
44766;SDS011;30487;48.716;9.272;2024-02-26T06:08:40;3.03;;;1.60;;
44766;SDS011;30487;48.716;9.272;2024-02-26T06:11:06;4.20;;;1.60;;
44766;SDS011;30487;48.716;9.272;2024-02-26T06:13:32;2.95;;;1.63;;
44766;SDS011;30487;48.716;9.272;2024-02-26T06:15:58;5.03;;;2.00;;
44766;SDS011;30487;48.716;9.272;2024-02-26T06:18:23;5.60;;;2.70;;
44766;SDS011;30487;48.716;9.272;2024-02-26T06:20:49;4.93;;;2.33;;
44766;SDS011;30487;48.716;9.272;2024-02-26T06:23:15;4.55;;;2.20;;
44766;SDS011;30487;48.716;9.272;2024-02-26T06:25:41;6.40;;;2.65;;
44766;SDS011;30487;48.716;9.272;2024-02-26T06:28:07;5.70;;;2.75;;
44766;SDS011;30487;48.716;9.272;2024-02-26T06:30:33;5.97;;;2.40;;
44766;SDS011;30487;48.716;9.272;2024-02-26T06:32:59;5.85;;;2.28;;
44766;SDS011;30487;48.716;9.272;2024-02-26T06:35:25;5.60;;;2.08;;
44766;SDS011;30487;48.716;9.272;2024-02-26T06:37:51;3.85;;;1.88;;
44766;SDS011;30487;48.716;9.272;2024-02-26T06:40:18;5.28;;;2.05;;
44766;SDS011;30487;48.716;9.272;2024-02-26T06:42:47;6.68;;;1.85;;
44766;SDS011;30487;48.716;9.272;2024-02-26T06:45:12;5.60;;;2.08;;
44766;SDS011;30487;48.716;9.272;2024-02-26T06:47:38;4.97;;;1.90;;
44766;SDS011;30487;48.716;9.272;2024-02-26T06:50:04;5.40;;;1.92;;
44766;SDS011;30487;48.716;9.272;2024-02-26T06:52:29;4.47;;;2.00;;
44766;SDS011;30487;48.716;9.272;2024-02-26T06:54:55;3.53;;;1.83;;
44766;SDS011;30487;48.716;9.272;2024-02-26T06:57:21;4.35;;;1.90;;
44766;SDS011;30487;48.716;9.272;2024-02-26T06:59:46;5.38;;;1.80;;
44766;SDS011;30487;48.716;9.272;2024-02-26T07:02:15;5.63;;;1.73;;
44766;SDS011;30487;48.716;9.272;2024-02-26T07:04:42;3.78;;;1.90;;
44766;SDS011;30487;48.716;9.272;2024-02-26T07:07:07;4.35;;;1.88;;
44766;SDS011;30487;48.716;9.272;2024-02-26T07:09:33;4.10;;;1.60;;
44766;SDS011;30487;48.716;9.272;2024-02-26T07:11:59;3.10;;;1.65;;
44766;SDS011;30487;48.716;9.272;2024-02-26T07:14:25;5.30;;;2.25;;
44766;SDS011;30487;48.716;9.272;2024-02-26T07:16:50;5.35;;;2.47;;
44766;SDS011;30487;48.716;9.272;2024-02-26T07:19:16;4.72;;;2.40;;
44766;SDS011;30487;48.716;9.272;2024-02-26T07:21:42;4.72;;;2.42;;
44766;SDS011;30487;48.716;9.272;2024-02-26T07:24:08;6.25;;;2.67;;
44766;SDS011;30487;48.716;9.272;2024-02-26T07:26:33;3.85;;;2.10;;
44766;SDS011;30487;48.716;9.272;2024-02-26T07:28:59;4.85;;;2.47;;
44766;SDS011;30487;48.716;9.272;2024-02-26T07:31:25;6.70;;;2.58;;
44766;SDS011;30487;48.716;9.272;2024-02-26T07:33:51;5.22;;;2.60;;
44766;SDS011;30487;48.716;9.272;2024-02-26T07:36:16;7.53;;;2.83;;
44766;SDS011;30487;48.716;9.272;2024-02-26T07:38:42;8.05;;;2.90;;
44766;SDS011;30487;48.716;9.272;2024-02-26T07:41:07;6.93;;;2.65;;
44766;SDS011;30487;48.716;9.272;2024-02-26T07:43:33;6.30;;;2.90;;
44766;SDS011;30487;48.716;9.272;2024-02-26T07:45:59;5.82;;;2.90;;
44766;SDS011;30487;48.716;9.272;2024-02-26T07:48:25;6.82;;;3.20;;
44766;SDS011;30487;48.716;9.272;2024-02-26T07:50:50;5.88;;;2.67;;
44766;SDS011;30487;48.716;9.272;2024-02-26T07:53:16;8.18;;;2.72;;
44766;SDS011;30487;48.716;9.272;2024-02-26T07:55:41;5.40;;;2.67;;
44766;SDS011;30487;48.716;9.272;2024-02-26T07:58:07;6.35;;;2.45;;
44766;SDS011;30487;48.716;9.272;2024-02-26T08:00:33;7.72;;;2.50;;
44766;SDS011;30487;48.716;9.272;2024-02-26T08:02:58;4.47;;;2.60;;
44766;SDS011;30487;48.716;9.272;2024-02-26T08:05:24;6.70;;;2.55;;
44766;SDS011;30487;48.716;9.272;2024-02-26T08:07:50;5.22;;;2.63;;
44766;SDS011;30487;48.716;9.272;2024-02-26T08:10:15;7.00;;;2.63;;
44766;SDS011;30487;48.716;9.272;2024-02-26T08:12:41;4.35;;;2.30;;
44766;SDS011;30487;48.716;9.272;2024-02-26T08:15:07;4.72;;;2.10;;
44766;SDS011;30487;48.716;9.272;2024-02-26T08:17:33;5.45;;;2.40;;
44766;SDS011;30487;48.716;9.272;2024-02-26T08:19:59;6.22;;;2.58;;
44766;SDS011;30487;48.716;9.272;2024-02-26T08:22:25;6.97;;;2.35;;
44766;SDS011;30487;48.716;9.272;2024-02-26T08:24:51;4.95;;;1.95;;
44766;SDS011;30487;48.716;9.272;2024-02-26T08:27:16;4.13;;;2.00;;
44766;SDS011;30487;48.716;9.272;2024-02-26T08:29:42;5.82;;;2.10;;
44766;SDS011;30487;48.716;9.272;2024-02-26T08:32:08;6.10;;;1.80;;
44766;SDS011;30487;48.716;9.272;2024-02-26T08:34:33;4.53;;;2.00;;
44766;SDS011;30487;48.716;9.272;2024-02-26T08:36:59;4.90;;;2.40;;
44766;SDS011;30487;48.716;9.272;2024-02-26T08:39:25;4.93;;;2.05;;
44766;SDS011;30487;48.716;9.272;2024-02-26T08:41:51;4.53;;;2.10;;
44766;SDS011;30487;48.716;9.272;2024-02-26T08:44:16;7.80;;;2.40;;
44766;SDS011;30487;48.716;9.272;2024-02-26T08:46:42;4.63;;;2.40;;
44766;SDS011;30487;48.716;9.272;2024-02-26T08:49:08;6.75;;;2.67;;
44766;SDS011;30487;48.716;9.272;2024-02-26T08:51:33;5.10;;;2.60;;
44766;SDS011;30487;48.716;9.272;2024-02-26T08:53:59;3.55;;;2.38;;
44766;SDS011;30487;48.716;9.272;2024-02-26T08:56:24;5.40;;;2.50;;
44766;SDS011;30487;48.716;9.272;2024-02-26T08:58:50;4.43;;;2.20;;
44766;SDS011;30487;48.716;9.272;2024-02-26T09:01:18;5.03;;;2.45;;
44766;SDS011;30487;48.716;9.272;2024-02-26T09:03:44;6.38;;;2.30;;
44766;SDS011;30487;48.716;9.272;2024-02-26T09:06:09;4.78;;;2.40;;
44766;SDS011;30487;48.716;9.272;2024-02-26T09:08:36;5.00;;;2.40;;
44766;SDS011;30487;48.716;9.272;2024-02-26T09:11:02;4.30;;;2.42;;
44766;SDS011;30487;48.716;9.272;2024-02-26T09:13:28;4.82;;;2.10;;
44766;SDS011;30487;48.716;9.272;2024-02-26T09:15:54;5.35;;;2.28;;
44766;SDS011;30487;48.716;9.272;2024-02-26T09:18:20;3.90;;;2.13;;
44766;SDS011;30487;48.716;9.272;2024-02-26T09:20:45;3.90;;;1.95;;
44766;SDS011;30487;48.716;9.272;2024-02-26T09:23:11;5.60;;;2.00;;
44766;SDS011;30487;48.716;9.272;2024-02-26T09:25:36;5.60;;;2.10;;
44766;SDS011;30487;48.716;9.272;2024-02-26T09:28:02;4.20;;;2.30;;
44766;SDS011;30487;48.716;9.272;2024-02-26T09:30:28;5.00;;;2.33;;
44766;SDS011;30487;48.716;9.272;2024-02-26T09:32:54;4.18;;;2.40;;
44766;SDS011;30487;48.716;9.272;2024-02-26T09:35:19;7.47;;;2.22;;
44766;SDS011;30487;48.716;9.272;2024-02-26T09:37:46;4.50;;;2.13;;
44766;SDS011;30487;48.716;9.272;2024-02-26T09:40:13;5.65;;;2.25;;
44766;SDS011;30487;48.716;9.272;2024-02-26T09:42:43;4.30;;;2.42;;
44766;SDS011;30487;48.716;9.272;2024-02-26T09:45:14;9.25;;;2.65;;
44766;SDS011;30487;48.716;9.272;2024-02-26T09:47:43;4.40;;;2.35;;
44766;SDS011;30487;48.716;9.272;2024-02-26T09:50:10;8.63;;;2.80;;
44766;SDS011;30487;48.716;9.272;2024-02-26T09:52:38;4.70;;;2.80;;
44766;SDS011;30487;48.716;9.272;2024-02-26T09:55:07;5.32;;;2.53;;
44766;SDS011;30487;48.716;9.272;2024-02-26T09:57:34;4.78;;;2.40;;
44766;SDS011;30487;48.716;9.272;2024-02-26T10:00:02;4.10;;;2.20;;
44766;SDS011;30487;48.716;9.272;2024-02-26T10:02:33;6.25;;;2.30;;
44766;SDS011;30487;48.716;9.272;2024-02-26T10:05:01;4.45;;;2.08;;
44766;SDS011;30487;48.716;9.272;2024-02-26T10:07:30;4.43;;;1.90;;
44766;SDS011;30487;48.716;9.272;2024-02-26T10:09:57;5.53;;;2.20;;
44766;SDS011;30487;48.716;9.272;2024-02-26T10:12:23;5.20;;;2.30;;
44766;SDS011;30487;48.716;9.272;2024-02-26T10:14:51;7.20;;;2.00;;
44766;SDS011;30487;48.716;9.272;2024-02-26T10:17:16;7.38;;;2.13;;
44766;SDS011;30487;48.716;9.272;2024-02-26T10:19:43;4.70;;;2.00;;
44766;SDS011;30487;48.716;9.272;2024-02-26T10:22:09;4.32;;;1.95;;
44766;SDS011;30487;48.716;9.272;2024-02-26T10:24:35;3.88;;;2.03;;
44766;SDS011;30487;48.716;9.272;2024-02-26T10:27:00;4.20;;;1.98;;
44766;SDS011;30487;48.716;9.272;2024-02-26T10:29:27;4.13;;;2.10;;
44766;SDS011;30487;48.716;9.272;2024-02-26T10:31:53;4.25;;;2.08;;
44766;SDS011;30487;48.716;9.272;2024-02-26T10:34:19;2.92;;;1.73;;
44766;SDS011;30487;48.716;9.272;2024-02-26T10:36:46;3.65;;;2.00;;
44766;SDS011;30487;48.716;9.272;2024-02-26T10:39:12;4.13;;;1.55;;
44766;SDS011;30487;48.716;9.272;2024-02-26T10:41:39;3.35;;;1.77;;
44766;SDS011;30487;48.716;9.272;2024-02-26T10:44:09;2.75;;;1.50;;
44766;SDS011;30487;48.716;9.272;2024-02-26T10:46:39;3.50;;;1.70;;
44766;SDS011;30487;48.716;9.272;2024-02-26T10:49:08;3.58;;;1.90;;
44766;SDS011;30487;48.716;9.272;2024-02-26T10:51:43;3.55;;;1.60;;
44766;SDS011;30487;48.716;9.272;2024-02-26T10:54:10;4.55;;;1.73;;
44766;SDS011;30487;48.716;9.272;2024-02-26T10:56:41;3.50;;;1.50;;
44766;SDS011;30487;48.716;9.272;2024-02-26T10:59:09;3.78;;;1.70;;
44766;SDS011;30487;48.716;9.272;2024-02-26T11:01:35;4.05;;;1.50;;
44766;SDS011;30487;48.716;9.272;2024-02-26T11:04:03;4.22;;;1.35;;
44766;SDS011;30487;48.716;9.272;2024-02-26T11:06:29;2.78;;;1.40;;
44766;SDS011;30487;48.716;9.272;2024-02-26T11:08:59;2.83;;;1.30;;
44766;SDS011;30487;48.716;9.272;2024-02-26T11:11:27;4.20;;;1.85;;
44766;SDS011;30487;48.716;9.272;2024-02-26T11:13:54;2.40;;;1.40;;
44766;SDS011;30487;48.716;9.272;2024-02-26T11:16:21;4.45;;;1.50;;
44766;SDS011;30487;48.716;9.272;2024-02-26T11:18:47;5.10;;;1.60;;
44766;SDS011;30487;48.716;9.272;2024-02-26T11:21:17;4.72;;;1.50;;
44766;SDS011;30487;48.716;9.272;2024-02-26T11:23:45;4.70;;;1.35;;
44766;SDS011;30487;48.716;9.272;2024-02-26T11:26:11;3.92;;;1.58;;
44766;SDS011;30487;48.716;9.272;2024-02-26T11:28:40;3.28;;;1.50;;
44766;SDS011;30487;48.716;9.272;2024-02-26T11:31:07;2.40;;;1.25;;
44766;SDS011;30487;48.716;9.272;2024-02-26T11:33:33;3.20;;;1.10;;
44766;SDS011;30487;48.716;9.272;2024-02-26T11:36:01;3.20;;;1.10;;
44766;SDS011;30487;48.716;9.272;2024-02-26T11:38:34;3.03;;;1.40;;
44766;SDS011;30487;48.716;9.272;2024-02-26T11:41:01;3.20;;;1.20;;
44766;SDS011;30487;48.716;9.272;2024-02-26T11:46:29;3.53;;;1.20;;
44766;SDS011;30487;48.716;9.272;2024-02-26T11:49:38;2.33;;;1.27;;
44766;SDS011;30487;48.716;9.272;2024-02-26T11:51:57;4.78;;;1.00;;
44766;SDS011;30487;48.716;9.272;2024-02-26T11:54:38;2.63;;;1.08;;
44766;SDS011;30487;48.716;9.272;2024-02-26T11:59:55;5.93;;;1.30;;
44766;SDS011;30487;48.716;9.272;2024-02-26T12:05:12;2.38;;;1.10;;
44766;SDS011;30487;48.716;9.272;2024-02-26T12:07:54;2.85;;;1.42;;
44766;SDS011;30487;48.716;9.272;2024-02-26T12:10:23;2.45;;;1.10;;
44766;SDS011;30487;48.716;9.272;2024-02-26T12:12:59;3.17;;;1.02;;
44766;SDS011;30487;48.716;9.272;2024-02-26T12:15:33;3.30;;;1.20;;
44766;SDS011;30487;48.716;9.272;2024-02-26T12:18:02;2.90;;;1.40;;
44766;SDS011;30487;48.716;9.272;2024-02-26T12:20:29;3.00;;;1.13;;
44766;SDS011;30487;48.716;9.272;2024-02-26T12:22:55;2.45;;;1.35;;
44766;SDS011;30487;48.716;9.272;2024-02-26T12:25:23;2.85;;;1.30;;
44766;SDS011;30487;48.716;9.272;2024-02-26T12:27:51;1.90;;;0.95;;
44766;SDS011;30487;48.716;9.272;2024-02-26T12:30:17;2.60;;;1.25;;
44766;SDS011;30487;48.716;9.272;2024-02-26T12:32:44;4.97;;;0.90;;
44766;SDS011;30487;48.716;9.272;2024-02-26T12:35:10;2.13;;;1.20;;
44766;SDS011;30487;48.716;9.272;2024-02-26T12:37:36;3.38;;;1.10;;
44766;SDS011;30487;48.716;9.272;2024-02-26T12:40:04;1.83;;;1.00;;
44766;SDS011;30487;48.716;9.272;2024-02-26T12:42:33;4.32;;;1.10;;
44766;SDS011;30487;48.716;9.272;2024-02-26T12:45:04;2.17;;;1.00;;
44766;SDS011;30487;48.716;9.272;2024-02-26T12:47:35;1.65;;;0.93;;
44766;SDS011;30487;48.716;9.272;2024-02-26T12:50:02;3.88;;;1.20;;
44766;SDS011;30487;48.716;9.272;2024-02-26T12:52:29;2.17;;;0.98;;
44766;SDS011;30487;48.716;9.272;2024-02-26T12:54:56;4.55;;;1.05;;
44766;SDS011;30487;48.716;9.272;2024-02-26T12:57:22;2.92;;;0.90;;
44766;SDS011;30487;48.716;9.272;2024-02-26T12:59:48;3.95;;;1.20;;
44766;SDS011;30487;48.716;9.272;2024-02-26T13:02:13;2.85;;;1.00;;
44766;SDS011;30487;48.716;9.272;2024-02-26T13:04:39;2.13;;;1.15;;
44766;SDS011;30487;48.716;9.272;2024-02-26T13:07:05;3.72;;;0.95;;
44766;SDS011;30487;48.716;9.272;2024-02-26T13:09:34;1.08;;;0.80;;
44766;SDS011;30487;48.716;9.272;2024-02-26T13:12:03;3.60;;;1.00;;
44766;SDS011;30487;48.716;9.272;2024-02-26T13:14:29;2.28;;;0.93;;
44766;SDS011;30487;48.716;9.272;2024-02-26T13:17:00;3.47;;;1.00;;
44766;SDS011;30487;48.716;9.272;2024-02-26T13:19:26;4.18;;;1.10;;
44766;SDS011;30487;48.716;9.272;2024-02-26T13:21:55;3.70;;;1.10;;
44766;SDS011;30487;48.716;9.272;2024-02-26T13:24:20;1.67;;;0.80;;
44766;SDS011;30487;48.716;9.272;2024-02-26T13:26:47;2.80;;;0.95;;
44766;SDS011;30487;48.716;9.272;2024-02-26T13:29:19;4.18;;;1.00;;
44766;SDS011;30487;48.716;9.272;2024-02-26T13:31:45;2.50;;;1.20;;
44766;SDS011;30487;48.716;9.272;2024-02-26T13:34:11;1.75;;;1.00;;
44766;SDS011;30487;48.716;9.272;2024-02-26T13:36:53;3.83;;;1.30;;
44766;SDS011;30487;48.716;9.272;2024-02-26T13:39:25;1.85;;;1.02;;
44766;SDS011;30487;48.716;9.272;2024-02-26T13:41:52;5.43;;;1.50;;
44766;SDS011;30487;48.716;9.272;2024-02-26T13:44:19;3.70;;;1.40;;
44766;SDS011;30487;48.716;9.272;2024-02-26T13:46:45;2.85;;;1.30;;
44766;SDS011;30487;48.716;9.272;2024-02-26T13:49:12;5.90;;;1.35;;
44766;SDS011;30487;48.716;9.272;2024-02-26T13:51:38;7.70;;;1.48;;
44766;SDS011;30487;48.716;9.272;2024-02-26T13:54:04;3.90;;;1.55;;
44766;SDS011;30487;48.716;9.272;2024-02-26T13:56:30;4.55;;;1.80;;
44766;SDS011;30487;48.716;9.272;2024-02-26T13:58:57;4.40;;;1.77;;
44766;SDS011;30487;48.716;9.272;2024-02-26T14:01:23;5.97;;;1.60;;
44766;SDS011;30487;48.716;9.272;2024-02-26T14:03:49;4.18;;;1.40;;
44766;SDS011;30487;48.716;9.272;2024-02-26T14:06:15;4.07;;;1.70;;
44766;SDS011;30487;48.716;9.272;2024-02-26T14:08:40;3.28;;;1.60;;
44766;SDS011;30487;48.716;9.272;2024-02-26T14:11:06;2.30;;;1.10;;
44766;SDS011;30487;48.716;9.272;2024-02-26T14:13:32;3.58;;;1.10;;
44766;SDS011;30487;48.716;9.272;2024-02-26T14:15:57;4.80;;;1.00;;
44766;SDS011;30487;48.716;9.272;2024-02-26T14:18:23;2.10;;;1.10;;
44766;SDS011;30487;48.716;9.272;2024-02-26T14:20:49;1.60;;;0.90;;
44766;SDS011;30487;48.716;9.272;2024-02-26T14:23:14;3.33;;;1.00;;
44766;SDS011;30487;48.716;9.272;2024-02-26T14:25:40;3.45;;;1.17;;
44766;SDS011;30487;48.716;9.272;2024-02-26T14:28:06;1.88;;;0.85;;
44766;SDS011;30487;48.716;9.272;2024-02-26T14:30:31;1.48;;;0.70;;
44766;SDS011;30487;48.716;9.272;2024-02-26T14:32:57;2.00;;;0.90;;
44766;SDS011;30487;48.716;9.272;2024-02-26T14:35:23;1.52;;;0.82;;
44766;SDS011;30487;48.716;9.272;2024-02-26T14:37:50;6.35;;;1.10;;
44766;SDS011;30487;48.716;9.272;2024-02-26T14:40:16;2.30;;;1.00;;
44766;SDS011;30487;48.716;9.272;2024-02-26T14:42:42;1.63;;;0.93;;
44766;SDS011;30487;48.716;9.272;2024-02-26T14:45:08;2.28;;;1.00;;
44766;SDS011;30487;48.716;9.272;2024-02-26T14:47:37;4.03;;;1.10;;
44766;SDS011;30487;48.716;9.272;2024-02-26T14:50:03;1.60;;;0.90;;
44766;SDS011;30487;48.716;9.272;2024-02-26T14:52:30;1.75;;;0.80;;